Westerville, OH (43082)

7:23 AM EST on January 28, 2015 (GMT -0500)
Annehurst Village | Change Station
CLOSE
Current Station
Personal Weather Station
Location: Westerville, OH
Elevation: 853 ft
Nearby Weather Stations

Elev 853 ft 40.13 °N, 82.95 °W | Updated 3 minutes ago

Partly Cloudy
Partly Cloudy
3.0 °F
Feels Like 3 °F
N
0.0
Wind Variable Wind from NE

Today
High -- | Low -- °F
--% Chance of Precip.
Yesterday
High -- | Low -- °F
Precip. -- in
7:44 AM 5:45 PM
Waxing Gibbous, 64% visible
Pressure 30.40 in
Visibility 4.0 miles
Clouds Clear
Windchill 3 °F
Dew Point 2 °F
Humidity 96%
Rainfall 0.00 in
Snow Depth Not available.
UV 0 out of 12
Pollen .10 out of 12
Air Quality Not available.
Flu Activity Not available.
METAR KOSU 281153Z 28003KT 4SM BR CLR M15/M17 A3034 RMK AO2 SLP292 I6000 T11501172 11122 21156 53026

More Conditions Fewer Conditions

Pressure 30.40 in
Visibility 4.0 miles
Clouds Clear
Windchill 3 °F
Dew Point 2 °F
Humidity 96%
Rainfall 0.00 in
Snow Depth Not available.
UV 0 out of 12
Pollen .10 out of 12
Air Quality Not available.
Flu Activity Not available.
METAR KOSU 281153Z 28003KT 4SM BR CLR M15/M17 A3034 RMK AO2 SLP292 I6000 T11501172 11122 21156 53026

More Conditions Fewer Conditions

10-Day Weather Forecast

Almanac

Astronomy

Jan. 28, 2015 Rise Set
Actual Time
Civil Twilight
Nautical Twilight
Astronomical Twilight
Moon
Length of Visible Light
Length of Day
Tomorrow will be .
, % of the Moon is Illuminated

Today's Extremes

State Highs State Lows

Community

WunderPhotos

Upload Photos

1,791,132 photos uploaded!

WunderBlogs® & News

Nearby

Air Quality

  Air Quality AQ Index Pollutant
Not available.

Snow Depth

Station Depth Elevation

Earthquake Activity

City Distance Mag. Time & Date
Minimum magnitude displayed is 2.5.

Coastal Water Temperatures

Place Temperature

Nearby Weather Stations